EZY5566 EGKH-EGKH
Flight info
| Callsign | EZY5566 |
|---|---|
| Flight time | 0h 17m |
| Altitude | 2000 |
| Route | LOCAL CCTS |
| Aircraft | P28A/L-G/L |
Departure
| Time | 2026-04-11 21:33 |
|---|---|
| Airport | Headcorn Aerodrome (EGKH) |
Arrival
| Time | 2026-04-11 21:51 |
|---|---|
| Airport | Headcorn Aerodrome (EGKH) |
| Time | Latitude | Longitude | Altitude | Speed | Heading |
|---|---|---|---|---|---|
| 2026-04-11 21:31 | 51.16587 | 0.61059 | 638 ft | 67 kts | 279° |
| 2026-04-11 21:33 | 51.16589 | 0.61055 | 641 ft | 67 kts | 279° |
| 2026-04-11 21:33 | 51.16844 | 0.60463 | 1004 ft | 58 kts | 281° |
| 2026-04-11 21:33 | 51.16921 | 0.60313 | 1094 ft | 59 kts | 281° |
| 2026-04-11 21:34 | 51.17008 | 0.60150 | 1163 ft | 61 kts | 282° |
| 2026-04-11 21:34 | 51.17309 | 0.59558 | 1263 ft | 75 kts | 284° |
| 2026-04-11 21:34 | 51.17563 | 0.58912 | 1322 ft | 63 kts | 261° |
| 2026-04-11 21:34 | 51.17477 | 0.58440 | 1380 ft | 57 kts | 227° |
| 2026-04-11 21:35 | 51.17433 | 0.58380 | 1364 ft | 60 kts | 221° |
| 2026-04-11 21:35 | 51.16960 | 0.58242 | 1360 ft | 79 kts | 185° |
| 2026-04-11 21:36 | 51.16415 | 0.58496 | 1276 ft | 93 kts | 180° |
| 2026-04-11 21:36 | 51.15765 | 0.58873 | 1216 ft | 98 kts | 173° |
| 2026-04-11 21:36 | 51.15222 | 0.59473 | 1386 ft | 97 kts | 153° |
| 2026-04-11 21:36 | 51.14870 | 0.60261 | 1564 ft | 101 kts | 141° |
| 2026-04-11 21:37 | 51.14774 | 0.60542 | 1574 ft | 105 kts | 136° |
| 2026-04-11 21:38 | 51.14667 | 0.60951 | 1557 ft | 115 kts | 127° |
| 2026-04-11 21:38 | 51.14478 | 0.62277 | 1542 ft | 128 kts | 112° |
| 2026-04-11 21:38 | 51.14287 | 0.63714 | 1144 ft | 132 kts | 117° |
| 2026-04-11 21:39 | 51.14096 | 0.65055 | 1004 ft | 115 kts | 111° |
| 2026-04-11 21:39 | 51.14037 | 0.66319 | 910 ft | 109 kts | 109° |
| 2026-04-11 21:39 | 51.14019 | 0.67502 | 889 ft | 107 kts | 87° |
| 2026-04-11 21:39 | 51.14481 | 0.68361 | 721 ft | 100 kts | 17° |
| 2026-04-11 21:40 | 51.14982 | 0.68420 | 586 ft | 83 kts | 323° |
| 2026-04-11 21:40 | 51.15263 | 0.67729 | 420 ft | 69 kts | 264° |
| 2026-04-11 21:40 | 51.15296 | 0.66999 | 323 ft | 66 kts | 256° |
| 2026-04-11 21:40 | 51.15365 | 0.66234 | 264 ft | 73 kts | 266° |
| 2026-04-11 21:41 | 51.15474 | 0.65392 | 150 ft | 79 kts | 271° |
| 2026-04-11 21:41 | 51.15597 | 0.64652 | -1 ft | 73 kts | 268° |
| 2026-04-11 21:41 | 51.15713 | 0.63937 | 19 ft | 69 kts | 281° |
| 2026-04-11 21:41 | 51.15872 | 0.63209 | 173 ft | 74 kts | 277° |
| 2026-04-11 21:42 | 51.16049 | 0.62408 | 266 ft | 76 kts | 276° |
| 2026-04-11 21:42 | 51.16223 | 0.61640 | 364 ft | 79 kts | 277° |
| 2026-04-11 21:42 | 51.16377 | 0.60859 | 340 ft | 72 kts | 261° |
| 2026-04-11 21:42 | 51.16311 | 0.60085 | 260 ft | 72 kts | 245° |
| 2026-04-11 21:43 | 51.16197 | 0.59303 | 216 ft | 69 kts | 246° |
| 2026-04-11 21:43 | 51.16115 | 0.58591 | 158 ft | 67 kts | 252° |
| 2026-04-11 21:43 | 51.16228 | 0.57629 | 272 ft | 73 kts | 266° |
| 2026-04-11 21:43 | 51.16353 | 0.56852 | 370 ft | 74 kts | 270° |
| 2026-04-11 21:44 | 51.16189 | 0.56260 | 470 ft | 64 kts | 203° |
| 2026-04-11 21:44 | 51.15832 | 0.56778 | 688 ft | 97 kts | 118° |
| 2026-04-11 21:44 | 51.15795 | 0.57578 | 946 ft | 95 kts | 111° |
| 2026-04-11 21:44 | 51.15720 | 0.58701 | 1100 ft | 108 kts | 116° |
| 2026-04-11 21:45 | 51.15552 | 0.59771 | 1268 ft | 97 kts | 133° |
| 2026-04-11 21:45 | 51.15315 | 0.60603 | 1343 ft | 96 kts | 139° |
| 2026-04-11 21:46 | 51.15090 | 0.61233 | 1305 ft | 102 kts | 142° |
| 2026-04-11 21:46 | 51.14779 | 0.62070 | 1670 ft | 83 kts | 145° |
| 2026-04-11 21:47 | 51.14487 | 0.62749 | 2005 ft | 68 kts | 159° |
| 2026-04-11 21:47 | 51.13625 | 0.64108 | 1978 ft | 91 kts | 139° |
| 2026-04-11 21:47 | 51.13603 | 0.65240 | 1752 ft | 105 kts | 105° |
| 2026-04-11 21:48 | 51.13624 | 0.66379 | 1510 ft | 106 kts | 109° |
| 2026-04-11 21:48 | 51.13570 | 0.67505 | 1367 ft | 96 kts | 113° |
| 2026-04-11 21:48 | 51.13555 | 0.68581 | 1160 ft | 105 kts | 88° |
| 2026-04-11 21:48 | 51.13963 | 0.69539 | 1046 ft | 98 kts | 33° |
| 2026-04-11 21:49 | 51.14564 | 0.69889 | 850 ft | 86 kts | 334° |
| 2026-04-11 21:49 | 51.14958 | 0.69406 | 622 ft | 66 kts | 281° |
| 2026-04-11 21:49 | 51.15108 | 0.68729 | 470 ft | 66 kts | 271° |
| 2026-04-11 21:49 | 51.15215 | 0.68017 | 340 ft | 63 kts | 266° |
| 2026-04-11 21:50 | 51.15288 | 0.67299 | 397 ft | 62 kts | 260° |
| 2026-04-11 21:50 | 51.15335 | 0.66568 | 262 ft | 66 kts | 257° |
| 2026-04-11 21:50 | 51.15402 | 0.65837 | 163 ft | 68 kts | 265° |
| 2026-04-11 21:50 | 51.15524 | 0.65103 | 42 ft | 66 kts | 271° |
| 2026-04-11 21:51 | 51.15616 | 0.64481 | -12 ft | 44 kts | 279° |
| 2026-04-11 21:51 | 51.15618 | 0.64224 | -10 ft | 9 kts | 146° |
| 2026-04-11 21:51 | 51.15615 | 0.64231 | -10 ft | 0 kts | 91° |